Latest Weather Observations for Amberley

IDQ60801

Issued at 11:02 am EST Tuesday 21 May 2024 (issued every 10 minutes, with the page automatically refreshed every 10 minutes)

About weather observations | Map of weather stations | Latest weather observations for QLD | Other Formats
Station Details ID: 040004 Name: AMBERLEY AMO Lat: -27.63 Lon: 152.71 Height: 24.2 m
Data from the previous 72 hours. | See also: Recent months at Amberley
Date/Time
EST
Temp
°C
App
Temp
°C
Dew
Point
°C
Rel
Hum
%
Delta-T
°C
Wind Press
QNH
hPa
Press
MSL
hPa
Rain since
9am
mm
Dir  Spd
km/h
Gust
km/h
Spd
kts
Gust
kts
21/10:30am 18.7 17.7 10.3 58 4.5 WNW 6 9 3 5 1022.4 1022.4 0.0
21/10:00am 17.6 16.4 10.2 62 3.9 NW 7 11 4 6 1022.8 1022.8 0.0
21/09:30am 15.2 14.1 10.0 71 2.7 W 6 9 3 5 1023.0 1023.0 0.0
21/09:00am 13.1 12.0 10.6 85 1.3 NW 7 11 4 6 1023.0 1023.0 0.0
21/08:30am 11.5 10.7 9.6 88 1.0 SW 4 9 2 5 1023.0 1023.0 0.0
21/08:00am 8.5 7.7 8.1 97 0.2 SSW 2 7 1 4 1022.9 1022.9 0.0
21/07:30am 6.9 6.2 6.9 100 0.0 CALM 0 0 0 0 1022.8 1022.8 0.0
21/07:00am 4.9 2.6 4.9 100 0.0 SSW 6 7 3 4 1022.8 1022.8 0.0
21/06:30am 3.9 2.6 3.9 100 0.0 CALM 0 0 0 0 1022.5 1022.5 0.0
21/06:00am 4.2 2.9 4.2 100 0.0 CALM 0 0 0 0 1022.0 1022.0 0.0
21/05:30am 3.8 2.4 3.8 100 0.0 CALM 0 0 0 0 1021.7 1021.7 0.0
21/05:00am 4.1 2.8 4.0 99 0.0 CALM 0 0 0 0 1021.3 1021.3 0.0
21/04:30am 4.8 3.6 4.8 100 0.0 CALM 0 0 0 0 1021.1 1021.1 0.0
21/04:00am 4.9 3.8 4.9 100 0.0 CALM 0 4 0 2 1020.9 1020.9 0.0
21/03:30am 4.6 2.2 4.5 99 0.0 SSW 6 7 3 4 1020.8 1020.8 0.0
21/03:00am 5.2 3.7 5.2 100 0.0 SSW 2 9 1 5 1020.7 1020.7 0.0
21/02:42am 5.1 4.0 5.0 99 0.0 CALM 0 0 0 0 1020.8 1020.8 0.0
21/02:30am 5.7 4.7 5.7 100 0.0 CALM 0 0 0 0 1020.9 1020.9 0.0
21/02:00am 5.7 4.7 5.6 99 0.0 CALM 0 0 0 0 1020.9 1020.9 0.0
21/01:52am 6.0 5.1 6.0 100 0.0 CALM 0 0 0 0 1021.0 1021.0 0.0
21/01:40am 6.2 5.3 6.2 100 0.0 CALM 0 0 0 0 1021.1 1021.1 0.0
21/01:30am 6.3 5.5 6.3 100 0.0 CALM 0 0 0 0 1021.1 1021.1 0.0
21/01:25am 6.2 5.3 6.2 100 0.0 CALM 0 0 0 0 1021.2 1021.2 0.0
21/01:20am 6.3 5.5 6.3 100 0.0 CALM 0 0 0 0 1021.3 1021.3 0.0
21/01:14am 6.2 5.3 6.1 99 0.0 CALM 0 0 0 0 1021.4 1021.4 0.0
21/01:00am 6.9 6.2 6.8 99 0.0 CALM 0 0 0 0 1021.5 1021.5 0.0
21/12:30am 7.2 6.6 7.2 100 0.0 CALM 0 0 0 0 1021.6 1021.6 0.0
21/12:00am 6.6 5.8 6.3 98 0.1 CALM 0 0 0 0 1021.7 1021.7 0.0
 
Date/Time
EST
Temp
°C
App
Temp
°C
Dew
Point
°C
Rel
Hum
%
Delta-T
°C
Wind Press
QNH
hPa
Press
MSL
hPa
Rain since
9am
mm
Dir  Spd
km/h
Gust
km/h
Spd
kts
Gust
kts
20/11:30pm 7.4 5.5 7.4 100 0.0 SSW 7 9 4 5 1021.7 1021.7 0.0
20/11:09pm 7.2 6.5 7.1 99 0.0 CALM 0 7 0 4 1021.8 1021.8 0.0
20/11:00pm 7.3 6.6 7.0 98 0.1 CALM 0 0 0 0 1021.9 1021.9 0.0
20/10:43pm 8.0 7.5 7.9 99 0.0 CALM 0 0 0 0 1021.9 1021.9 0.0
20/10:30pm 7.9 7.4 7.8 99 0.0 CALM 0 0 0 0 1021.9 1021.9 0.0
20/10:23pm 7.9 7.4 7.8 99 0.0 CALM 0 0 0 0 1021.9 1021.9 0.0
20/10:00pm 8.4 8.0 8.3 99 0.0 CALM 0 0 0 0 1022.0 1022.0 0.0
20/09:30pm 9.3 8.0 9.3 100 0.0 SSW 6 7 3 4 1021.8 1021.8 0.0
20/09:00pm 8.8 7.1 8.5 98 0.1 SSW 7 9 4 5 1021.7 1021.7 0.0
20/08:30pm 9.9 9.8 9.6 98 0.1 CALM 0 0 0 0 1021.5 1021.5 0.0
20/08:00pm 11.4 10.5 10.5 94 0.5 SSW 6 9 3 5 1021.2 1021.2 0.0
20/07:30pm 11.4 10.1 10.1 92 0.7 ESE 7 9 4 5 1020.7 1020.7 0.0
20/07:00pm 11.2 10.2 10.3 94 0.5 E 6 9 3 5 1020.3 1020.3 0.0
20/06:30pm 14.5 13.5 10.3 76 2.2 E 6 7 3 4 1019.8 1019.8 0.0
20/06:00pm 13.2 13.1 10.7 85 1.3 S 2 9 1 5 1019.4 1019.4 0.0
20/05:30pm 15.8 14.6 10.3 70 2.9 S 7 7 4 4 1018.8 1018.8 0.0
20/05:00pm 19.6 18.5 10.0 54 5.1 S 6 7 3 4 1018.6 1018.6 0.0
20/04:30pm 21.7 20.4 9.9 47 6.4 S 7 7 4 4 1018.3 1018.3 0.0
20/04:00pm 22.5 21.8 8.6 41 7.4 S 2 7 1 4 1017.9 1017.9 0.0
20/03:30pm 23.0 21.6 8.7 40 7.6 S 6 11 3 6 1017.8 1017.8 0.0
20/03:00pm 23.0 21.1 9.0 41 7.5 NW 9 11 5 6 1017.7 1017.7 0.0
20/02:30pm 23.4 21.4 8.7 39 7.9 W 9 13 5 7 1017.7 1017.7 0.0
20/02:00pm 23.1 20.5 9.5 42 7.3 WNW 13 17 7 9 1017.7 1017.7 0.0
20/01:30pm 22.6 21.8 8.3 40 7.6 NW 2 9 1 5 1017.8 1017.8 0.0
20/01:00pm 22.4 21.0 8.9 42 7.2 S 6 11 3 6 1018.1 1018.1 0.0
20/12:30pm 22.1 20.7 9.6 45 6.7 SSW 7 11 4 6 1018.5 1018.5 0.0
20/12:00pm 21.3 19.7 8.9 45 6.6 WNW 7 13 4 7 1019.1 1019.1 0.0
20/11:30am 20.4 18.9 9.3 49 5.9 S 7 11 4 6 1019.7 1019.7 0.0
20/11:00am 20.2 19.3 9.2 49 5.8 WNW 4 9 2 5 1020.3 1020.3 0.0
20/10:30am 18.5 16.4 9.8 57 4.6 NNW 11 13 6 7 1020.8 1020.8 0.0
20/10:00am 17.6 15.3 10.5 63 3.8 NW 13 17 7 9 1021.2 1021.2 0.0
20/09:30am 16.2 14.4 10.7 70 2.9 NNW 11 15 6 8 1021.4 1021.4 0.0
20/09:00am 14.4 13.5 11.2 81 1.7 NNE 7 9 4 5 1021.2 1021.2 0.0
20/08:30am 12.8 11.9 10.5 86 1.2 E 6 7 3 4 1021.2 1021.2 0.0
20/08:00am 10.8 10.4 9.7 93 0.6 SE 2 7 1 4 1021.1 1021.1 0.0
20/07:30am 8.5 6.8 8.5 100 0.0 SSW 7 7 4 4 1020.9 1020.9 0.0
20/07:00am 5.2 2.8 5.2 100 0.0 SSW 7 9 4 5 1020.6 1020.6 0.0
20/06:30am 4.4 3.1 4.3 99 0.0 CALM 0 0 0 0 1020.2 1020.2 0.0
20/06:00am 4.7 3.5 4.6 99 0.0 CALM 0 0 0 0 1019.8 1019.8 0.0
20/05:30am 4.8 3.6 4.8 100 0.0 CALM 0 0 0 0 1019.4 1019.4 0.0
20/05:00am 4.7 2.2 4.6 99 0.0 SW 7 9 4 5 1019.1 1019.1 0.0
20/04:30am 5.0 3.9 5.0 100 0.0 CALM 0 0 0 0 1018.8 1018.8 0.0
20/04:29am 5.1 4.0 5.1 100 0.0 CALM 0 0 0 0 1018.8 1018.8 0.0
20/04:06am 5.4 4.0 5.4 100 0.0 WNW 2 7 1 4 1018.6 1018.6 0.0
20/04:00am 5.7 4.7 5.7 100 0.0 CALM 0 0 0 0 1018.6 1018.6 0.0
20/03:30am 5.2 4.1 5.1 99 0.0 CALM 0 0 0 0 1018.7 1018.7 0.0
20/03:00am 6.1 5.1 5.8 98 0.1 CALM 0 6 0 3 1018.7 1018.7 0.0
20/02:30am 6.6 5.8 6.5 99 0.0 CALM 0 0 0 0 1018.8 1018.8 0.0
20/02:00am 6.5 5.6 6.2 98 0.1 CALM 0 0 0 0 1018.9 1018.9 0.0
20/01:30am 7.6 7.0 7.3 98 0.1 CALM 0 0 0 0 1019.2 1019.2 0.0
20/01:00am 8.0 6.3 7.6 97 0.2 NW 6 7 3 4 1019.2 1019.2 0.0
20/12:30am 7.4 5.1 7.3 99 0.0 NNW 9 11 5 6 1019.3 1019.3 0.0
20/12:00am 7.4 5.6 7.1 98 0.1 NW 6 7 3 4 1019.2 1019.2 0.0
 
Date/Time
EST
Temp
°C
App
Temp
°C
Dew
Point
°C
Rel
Hum
%
Delta-T
°C
Wind Press
QNH
hPa
Press
MSL
hPa
Rain since
9am
mm
Dir  Spd
km/h
Gust
km/h
Spd
kts
Gust
kts
19/11:30pm 7.5 5.7 7.1 97 0.2 NW 6 7 3 4 1019.2 1019.2 0.0
19/11:00pm 8.5 6.4 8.4 99 0.0 NW 9 9 5 5 1019.4 1019.4 0.0
19/10:30pm 8.7 7.0 8.4 98 0.1 SSE 7 9 4 5 1019.3 1019.3 0.0
19/10:00pm 9.5 9.2 8.7 95 0.4 CALM 0 0 0 0 1019.3 1019.3 0.0
19/09:30pm 9.6 9.4 9.1 97 0.2 CALM 0 0 0 0 1019.2 1019.2 0.0
19/09:00pm 10.4 10.2 9.0 91 0.7 CALM 0 0 0 0 1019.2 1019.2 0.0
19/08:30pm 11.0 10.9 9.3 89 0.9 CALM 0 0 0 0 1019.0 1019.0 0.0
19/08:00pm 11.6 11.2 9.9 89 0.9 SE 2 6 1 3 1018.8 1018.8 0.0
19/07:30pm 11.4 11.4 9.8 90 0.8 CALM 0 0 0 0 1018.5 1018.5 0.0
19/07:00pm 12.4 12.3 9.6 83 1.4 CALM 0 0 0 0 1018.2 1018.2 0.0
19/06:30pm 13.2 12.0 9.5 78 1.9 SE 6 7 3 4 1017.7 1017.7 0.0
19/06:00pm 15.2 14.0 9.6 69 2.9 SE 6 7 3 4 1017.1 1017.1 0.0
19/05:30pm 16.0 14.4 8.7 62 3.7 SE 7 9 4 5 1016.8 1016.8 0.0
19/05:00pm 17.7 15.0 8.8 56 4.6 SSE 13 17 7 9 1016.3 1016.3 0.0
19/04:30pm 20.1 16.8 8.1 46 6.2 SSE 15 22 8 12 1015.9 1015.9 0.0
19/04:00pm 21.2 17.0 8.1 43 6.8 S 20 26 11 14 1015.5 1015.5 0.0
19/03:30pm 22.1 17.6 6.3 36 8.0 SSW 19 26 10 14 1015.2 1015.2 0.0
19/03:00pm 22.7 18.5 8.4 40 7.6 SSE 20 30 11 16 1015.2 1015.2 0.0
19/02:30pm 22.4 18.6 7.4 38 7.8 S 17 28 9 15 1015.3 1015.3 0.0
19/02:00pm 22.5 18.4 7.9 39 7.6 SSE 19 30 10 16 1015.4 1015.4 0.0
19/01:30pm 22.7 18.6 8.8 41 7.4 S 20 33 11 18 1015.5 1015.5 0.0
19/01:00pm 22.3 18.2 7.7 39 7.6 SSE 19 26 10 14 1015.8 1015.8 0.0
19/12:30pm 22.3 18.1 8.4 41 7.3 S 20 32 11 17 1016.2 1016.2 0.0
19/12:00pm 22.0 17.0 8.2 41 7.2 SSW 24 37 13 20 1016.8 1016.8 0.0
19/11:30am 21.4 15.6 8.0 42 7.0 S 28 44 15 24 1017.2 1017.2 0.0
19/11:00am 20.9 15.5 7.9 43 6.7 SSW 26 39 14 21 1017.6 1017.6 0.0
19/10:30am 20.5 14.8 8.5 46 6.3 SSW 28 37 15 20 1017.9 1017.9 0.0
19/10:00am 19.9 17.2 10.3 54 5.2 SSW 15 24 8 13 1018.2 1018.2 0.0
19/09:30am 18.3 14.4 8.6 53 5.0 SW 19 28 10 15 1018.3 1018.3 0.0
19/09:00am 17.7 15.0 9.1 57 4.5 SW 13 20 7 11 1018.3 1018.3 0.0
19/08:30am 16.4 14.7 9.8 65 3.5 NW 9 13 5 7 1018.1 1018.1 0.0
19/08:00am 13.2 11.0 10.7 85 1.3 W 13 19 7 10 1017.9 1017.9 0.0
19/07:30am 10.8 9.2 8.9 88 0.9 NW 7 9 4 5 1017.7 1017.7 0.0
19/07:00am 9.2 5.8 7.6 90 0.8 NNW 15 17 8 9 1017.8 1017.8 0.0
19/06:30am 7.8 4.6 6.7 93 0.5 NW 13 17 7 9 1017.3 1017.3 0.0
19/06:00am 9.1 7.2 7.4 89 0.8 NW 7 9 4 5 1016.9 1016.9 0.0
19/05:30am 8.8 5.7 7.1 89 0.8 NW 13 15 7 8 1016.6 1016.6 0.0
19/05:00am 9.3 6.8 6.7 84 1.2 NW 9 11 5 6 1016.1 1016.1 0.0
19/04:30am 9.7 6.6 7.3 85 1.1 WNW 13 17 7 9 1016.1 1016.1 0.0
19/04:00am 8.6 5.6 7.5 93 0.5 NW 13 15 7 8 1016.0 1016.0 0.0
19/03:30am 10.0 7.6 7.1 82 1.4 SSW 9 11 5 6 1015.8 1015.8 0.0
19/03:00am 9.2 6.1 7.2 87 0.9 WNW 13 17 7 9 1015.9 1015.9 0.0
19/02:30am 12.2 8.8 7.7 74 2.2 SW 15 19 8 10 1015.9 1015.9 0.0
19/02:00am 9.5 7.8 7.4 87 1.0 SSW 6 9 3 5 1016.0 1016.0 0.0
19/01:30am 9.6 6.9 7.2 85 1.1 WSW 11 15 6 8 1016.1 1016.1 0.0
19/01:00am 11.4 9.1 7.3 76 2.0 SW 9 11 5 6 1015.9 1015.9 0.0
19/12:30am 11.2 9.5 7.5 78 1.8 SW 6 9 3 5 1016.1 1016.1 0.0
19/12:00am 10.4 8.6 7.8 84 1.3 SW 7 13 4 7 1016.0 1016.0 0.0
 
Date/Time
EST
Temp
°C
App
Temp
°C
Dew
Point
°C
Rel
Hum
%
Delta-T
°C
Wind Press
QNH
hPa
Press
MSL
hPa
Rain since
9am
mm
Dir  Spd
km/h
Gust
km/h
Spd
kts
Gust
kts
18/11:30pm 11.9 10.1 7.8 76 2.0 SW 7 9 4 5 1016.1 1016.1 0.0
18/11:00pm 12.7 9.8 8.0 73 2.3 SW 13 15 7 8 1016.3 1016.3 0.0
18/10:30pm 12.9 10.1 8.6 75 2.1 SW 13 17 7 9 1016.3 1016.3 0.0
18/10:00pm 13.4 9.7 8.0 70 2.7 SSE 17 22 9 12 1016.5 1016.5 0.0
18/09:30pm 14.7 9.0 8.2 65 3.3 SSE 28 41 15 22 1016.8 1016.8 0.0
18/09:00pm 15.9 10.3 10.2 69 3.0 S 30 41 16 22 1016.7 1016.7 0.0
18/08:41pm 17.9 13.4 7.0 49 5.5 SW 20 41 11 22 1015.8 1015.8 0.0
18/08:30pm 18.1 14.2 6.9 48 5.6 SW 17 22 9 12 1015.3 1015.3 0.0
18/08:00pm 17.4 14.0 7.7 53 4.9 SW 15 28 8 15 1015.1 1015.1 0.0
18/07:30pm 17.2 14.4 8.4 56 4.5 SSW 13 17 7 9 1014.6 1014.6 0.0
18/07:00pm 17.3 14.8 8.4 56 4.6 SSW 11 15 6 8 1014.2 1014.2 0.0
18/06:30pm 17.6 14.7 8.2 54 4.8 S 13 15 7 8 1013.7 1013.6 0.0
18/06:00pm 19.8 16.0 7.5 45 6.3 W 17 20 9 11 1013.0 1012.9 0.0
18/05:30pm 20.3 16.9 9.2 49 5.9 WNW 17 22 9 12 1012.7 1012.6 0.0
18/05:00pm 21.3 17.5 9.2 46 6.5 W 19 26 10 14 1012.4 1012.3 0.0
18/04:30pm 23.3 19.9 10.4 44 7.1 W 19 26 10 14 1012.1 1012.0 0.0
18/04:00pm 24.2 21.8 11.5 45 7.2 WNW 15 19 8 10 1012.0 1011.9 0.0
18/03:30pm 25.3 25.1 12.9 46 7.2 W 6 11 3 6 1012.2 1012.1 0.0
18/03:00pm 23.4 23.6 13.0 52 6.0 SW 4 9 2 5 1012.4 1012.3 0.0
18/02:30pm 25.5 24.6 14.9 52 6.4 SSW 13 17 7 9 1012.7 1012.6 0.0
18/02:00pm 24.8 24.4 13.0 47 6.8 WNW 7 15 4 8 1012.8 1012.7 0.0
18/01:30pm 25.2 24.7 13.7 49 6.8 WSW 9 15 5 8 1013.1 1013.0 0.0
18/01:00pm 25.1 25.5 13.6 48 6.7 SSW 4 11 2 6 1013.5 1013.4 0.0
18/12:30pm 24.1 23.7 15.1 57 5.4 WNW 11 17 6 9 1014.3 1014.3 0.0
18/12:00pm 23.4 23.7 14.9 59 5.1 NW 7 13 4 7 1014.9 1014.9 0.0
18/11:30am 23.2 22.9 15.5 62 4.6 NW 11 15 6 8 1015.4 1015.4 0.0

Other formats

Comma delimited format used in spreadsheet applications
http://www.bom.gov.au/fwo/IDQ60801/IDQ60801.94568.axf

JavaScript Object Notation format (JSON) in row-major order
http://www.bom.gov.au/fwo/IDQ60801/IDQ60801.94568.json

Data quality

Most of these data are generated automatically and are frequently updated. Quality checks on data are not normally performed. It is possible for incorrect values to appear. Refer to information at About Latest Weather Observations and please check the disclaimer before using these data.